Time;durP1;ratioP1;P1;durP2;ratioP2;P2;SDS_P1;SDS_P2;PMS_P1;PMS_P2;Temp;Humidity;BMP_temperature;BMP_pressure;BME280_temperature;BME280_humidity;BME280_pressure;Samples;Min_cycle;Max_cycle;Signal;HPM_P1;HPM_P2
2022/04/02 00:00:06;;;;;;;20.63;16.00;;;0.60;99.90;;;-1.05;95.29;96762.31;5002174;28;20548;-75
2022/04/02 00:02:33;;;;;;;21.80;15.57;;;0.60;99.10;;;-1.29;94.34;96729.59;5006431;28;20581;-76
2022/04/02 00:05:02;;;;;;;23.77;15.20;;;0.60;98.10;;;-1.05;93.75;96767.63;4998471;28;20462;-77
2022/04/02 00:07:29;;;;;;;18.50;14.73;;;0.60;97.10;;;-1.27;93.39;96756.78;5003881;28;20461;-76
2022/04/02 00:09:56;;;;;;;19.70;13.43;;;0.60;94.70;;;-1.18;93.88;96765.53;4996143;28;20542;-75
2022/04/02 00:12:24;;;;;;;22.47;12.97;;;0.60;96.50;;;-1.19;93.14;96759.38;5002018;28;20530;-76
2022/04/02 00:14:51;;;;;;;17.73;11.43;;;0.60;95.80;;;-1.15;93.67;96771.28;5000102;28;20639;-76
2022/04/02 00:17:18;;;;;;;17.10;11.90;;;0.60;97.10;;;-1.76;93.97;96697.63;4999393;28;20503;-78
2022/04/02 00:19:45;;;;;;;15.13;11.30;;;0.50;97.20;;;-1.23;93.23;96779.28;5000781;28;20541;-76
2022/04/02 00:22:13;;;;;;;18.60;11.47;;;0.50;96.30;;;-1.42;93.95;96743.41;5002029;28;20458;-75
2022/04/02 00:24:41;;;;;;;13.53;9.00;;;0.50;96.60;;;-1.28;92.64;96771.03;5001332;28;20459;-76
2022/04/02 00:27:08;;;;;;;11.80;8.50;;;0.40;94.50;;;-1.49;92.21;96761.78;5001930;28;20934;-73
2022/04/02 00:29:38;;;;;;;11.60;8.07;;;0.40;93.70;;;-1.35;92.36;96770.03;5003272;28;20546;-76
2022/04/02 00:32:06;;;;;;;19.97;8.87;;;0.40;93.60;;;-1.39;92.87;96774.03;5000212;28;20534;-77
2022/04/02 00:34:33;;;;;;;19.83;8.37;;;0.40;94.90;;;-1.49;93.37;96777.69;5004126;28;20466;-77
2022/04/02 00:37:00;;;;;;;10.77;7.27;;;0.30;94.80;;;-2.08;93.49;96683.47;5002344;28;20443;-76
2022/04/02 00:39:30;;;;;;;22.00;8.80;;;0.30;95.50;;;-1.45;93.39;96778.19;5012033;28;22654;-77
2022/04/02 00:41:57;;;;;;;9.00;7.40;;;0.30;96.10;;;-1.47;93.93;96794.25;5006753;28;20459;-77
2022/04/02 00:44:25;;;;;;;12.13;7.37;;;0.30;96.00;;;-1.46;94.09;96787.94;5003611;28;20490;-78
2022/04/02 00:46:52;;;;;;;14.20;7.73;;;0.30;98.10;;;-1.47;91.61;96780.19;5004631;28;20475;-76
2022/04/02 00:49:20;;;;;;;10.57;8.17;;;0.30;93.60;;;-1.35;92.96;96789.44;4999311;28;20462;-77
2022/04/02 00:51:50;;;;;;;14.33;7.07;;;0.30;95.10;;;-1.48;91.74;96771.41;5000079;28;20459;-77
2022/04/02 00:54:20;;;;;;;9.77;6.40;;;0.30;93.90;;;-1.48;90.53;96775.88;5001732;28;20473;-77
2022/04/02 00:56:49;;;;;;;12.40;7.50;;;0.30;92.90;;;-1.45;91.65;96786.94;5005870;28;20470;-77
2022/04/02 00:59:16;;;;;;;10.20;7.10;;;0.30;93.00;;;-1.54;90.84;96789.78;4997876;28;20950;-78
2022/04/02 01:01:45;;;;;;;20.73;8.23;;;0.30;92.60;;;-1.41;90.99;96795.41;5016621;28;20977;-79
2022/04/02 01:04:12;;;;;;;19.00;7.73;;;0.30;92.60;;;-1.33;92.00;96807.78;5002532;28;20463;-77
2022/04/02 01:06:42;;;;;;;15.80;9.00;;;0.40;94.00;;;-1.42;93.23;96801.69;5004555;28;20459;-76
2022/04/02 01:09:10;;;;;;;14.83;9.63;;;0.30;95.10;;;-1.37;93.12;96799.34;5013129;28;20959;-75
2022/04/02 01:11:40;;;;;;;16.30;10.83;;;0.40;96.20;;;-1.42;93.53;96780.50;5014670;28;21011;-78
2022/04/02 01:14:08;;;;;;;16.70;9.60;;;0.40;97.60;;;-1.25;93.86;96802.47;5016906;28;20662;-75
2022/04/02 01:16:36;;;;;;;15.50;11.20;;;0.50;97.20;;;-1.35;95.08;96809.78;5016752;28;20554;-78
2022/04/02 01:19:04;;;;;;;18.33;12.97;;;0.40;99.90;;;-1.47;96.17;96802.19;5003245;28;20564;-78
2022/04/02 01:21:33;;;;;;;22.73;10.77;;;0.30;99.90;;;-2.04;97.99;96729.81;5000361;28;20559;-78
2022/04/02 01:24:01;;;;;;;19.37;13.60;;;0.20;99.90;;;-1.35;98.01;96805.34;5000680;28;20988;-80
2022/04/02 01:26:28;;;;;;;17.57;12.40;;;0.30;99.90;;;-1.55;97.77;96786.31;4997710;28;20458;-79
2022/04/02 01:28:57;;;;;;;18.10;12.20;;;0.30;99.90;;;-1.38;98.14;96804.84;5002396;28;20459;-77
2022/04/02 01:31:26;;;;;;;18.93;14.07;;;0.30;99.90;;;-1.78;99.02;96744.63;5002236;28;20443;-78
2022/04/02 01:33:54;;;;;;;25.60;14.63;;;0.40;99.90;;;-1.31;99.36;96822.53;5003279;28;20548;-80
2022/04/02 01:36:22;;;;;;;23.63;15.23;;;0.40;99.90;;;-1.49;98.95;96817.44;5000801;28;20577;-77
2022/04/02 01:38:50;;;;;;;20.23;15.00;;;0.30;99.90;;;-1.38;99.26;96816.25;4994053;28;20481;-77
2022/04/02 01:41:20;;;;;;;23.13;14.90;;;0.30;99.90;;;-1.34;97.99;96820.25;5006004;28;20489;-78
2022/04/02 01:43:48;;;;;;;19.63;14.20;;;0.30;99.90;;;-1.53;97.70;96810.81;5004539;28;20550;-79
2022/04/02 01:46:16;;;;;;;16.37;12.53;;;0.30;99.90;;;-1.35;97.42;96823.88;5013814;28;20488;-76
2022/04/02 01:48:43;;;;;;;21.00;12.20;;;0.30;99.90;;;-1.37;97.30;96817.91;5002936;28;20564;-76
2022/04/02 01:51:10;;;;;;;22.10;11.67;;;0.40;99.90;;;-1.48;97.45;96829.69;4999537;28;20487;-75
2022/04/02 01:53:37;;;;;;;22.53;12.70;;;0.30;99.90;;;-1.39;97.38;96822.53;5004444;28;20467;-75
2022/04/02 01:56:07;;;;;;;15.60;11.87;;;0.30;99.90;;;-1.58;97.04;96813.16;5001518;28;20463;-78
2022/04/02 01:58:36;;;;;;;17.70;12.30;;;0.30;99.90;;;-1.41;96.64;96826.38;5001479;28;20510;-76
2022/04/02 02:01:05;;;;;;;18.53;11.53;;;0.30;99.90;;;-1.69;97.05;96824.09;5001487;28;20506;-77
2022/04/02 02:03:32;;;;;;;17.43;10.13;;;0.20;99.90;;;-1.59;96.89;96832.69;5000547;28;20665;-79
2022/04/02 02:05:59;;;;;;;18.30;10.03;;;0.20;99.90;;;-1.55;95.68;96841.13;5000007;28;20503;-75
2022/04/02 02:08:27;;;;;;;16.37;9.93;;;0.20;99.10;;;-1.56;95.77;96829.72;4996047;28;20966;-76
2022/04/02 02:10:54;;;;;;;11.53;8.90;;;0.20;99.90;;;-1.52;95.66;96838.13;5007541;28;20486;-80
2022/04/02 02:13:22;;;;;;;12.37;8.70;;;0.20;99.90;;;-1.65;96.08;96814.81;5005106;28;20550;-78
2022/04/02 02:15:50;;;;;;;11.77;8.63;;;0.20;99.90;;;-1.57;97.07;96843.97;5018295;28;20456;-77
2022/04/02 02:18:17;;;;;;;18.40;9.20;;;0.20;99.90;;;-1.52;96.84;96838.13;5007396;28;20482;-80
2022/04/02 02:20:44;;;;;;;13.23;8.10;;;0.20;99.90;;;-1.53;96.86;96845.28;5016612;28;20851;-80
2022/04/02 02:23:11;;;;;;;14.73;8.10;;;0.20;99.90;;;-1.71;97.66;96832.19;5024294;28;20482;-77
2022/04/02 02:25:38;;;;;;;12.33;7.77;;;0.10;99.90;;;-1.57;97.11;96844.78;5020895;28;20521;-77
2022/04/02 02:28:05;;;;;;;17.50;9.90;;;0.20;99.90;;;-1.64;97.14;96858.84;5014354;28;20474;-78
2022/04/02 02:30:32;;;;;;;14.50;8.80;;;0.10;99.90;;;-1.73;98.04;96856.22;5013046;28;20853;-78
2022/04/02 02:35:51;;;;;;;11.37;8.07;;;0.00;99.90;;;-2.25;98.18;96782.41;5037523;28;20516;-76
2022/04/02 02:38:20;;;;;;;14.93;8.20;;;0.00;99.90;;;-1.76;97.67;96845.94;5035353;28;20513;-78
2022/04/02 02:40:49;;;;;;;14.53;8.07;;;0.00;99.90;;;-1.92;97.57;96830.03;5033424;28;20555;-78
2022/04/02 02:43:16;;;;;;;10.33;7.80;;;0.00;99.90;;;-1.86;96.58;96834.69;5034563;28;20449;-77
2022/04/02 02:45:44;;;;;;;13.97;7.90;;;0.00;99.90;;;-1.78;96.83;96842.63;5028331;28;20488;-78
2022/04/02 02:48:13;;;;;;;12.23;8.30;;;0.00;99.90;;;-1.75;96.53;96847.59;5045496;28;20465;-74
2022/04/02 02:50:42;;;;;;;13.33;8.17;;;0.00;99.90;;;-1.72;97.19;96852.56;5034383;28;20438;-78
2022/04/02 02:53:09;;;;;;;12.57;7.23;;;0.00;99.90;;;-1.90;96.61;96812.16;5026706;28;20479;-76
2022/04/02 02:55:37;;;;;;;9.67;8.17;;;0.10;99.90;;;-1.75;96.33;96852.06;5017883;28;20470;-78
2022/04/02 02:58:04;;;;;;;10.50;7.67;;;0.10;99.90;;;-1.71;96.78;96856.88;5022160;28;20474;-80
2022/04/02 03:00:31;;;;;;;11.00;8.03;;;0.10;99.90;;;-1.74;97.19;96857.22;5010960;28;21021;-78
2022/04/02 03:02:58;;;;;;;14.27;7.70;;;0.00;99.90;;;-1.81;97.55;96852.75;5025939;28;20562;-81
2022/04/02 03:05:27;;;;;;;11.20;7.73;;;0.00;99.90;;;-1.73;98.16;96856.22;5004857;28;20467;-76
2022/04/02 03:07:54;;;;;;;9.70;7.60;;;0.00;99.90;;;-1.81;97.27;96852.75;5004102;28;20513;-75
2022/04/02 03:10:24;;;;;;;16.53;7.50;;;0.00;99.90;;;-1.96;97.47;96839.31;5006202;28;20470;-80
2022/04/02 03:12:53;;;;;;;8.87;7.63;;;-0.10;99.90;;;-1.86;97.67;96867.28;5020842;28;20457;-76
2022/04/02 03:15:21;;;;;;;13.17;6.73;;;-0.10;99.90;;;-1.90;98.03;96860.69;5003516;28;20486;-76
2022/04/02 03:17:49;;;;;;;9.67;7.10;;;-0.10;99.90;;;-1.89;98.29;96856.22;5004625;28;20520;-81
2022/04/02 03:20:18;;;;;;;9.70;6.87;;;-0.10;99.90;;;-1.82;98.41;96856.34;5000801;28;20519;-77
2022/04/02 03:22:51;;;;;;;10.70;8.23;;;-0.10;99.90;;;-1.85;98.51;96855.69;5004798;28;20459;-76
2022/04/02 03:25:21;;;;;;;17.30;7.53;;;-0.10;99.90;;;-2.05;98.72;96836.66;5002103;28;20560;-79
2022/04/02 03:27:49;;;;;;;12.50;7.60;;;-0.10;99.90;;;-1.93;99.33;96854.88;5003774;28;20888;-79
2022/04/02 03:30:20;;;;;;;10.83;7.57;;;-0.10;99.90;;;-1.92;99.42;96864.47;4997997;28;20833;-77
2022/04/02 03:32:48;;;;;;;15.77;7.27;;;-0.20;99.90;;;-1.85;99.18;96871.59;5027850;28;20804;-82
2022/04/02 03:35:16;;;;;;;15.97;7.63;;;-0.10;99.90;;;-1.85;99.47;96863.66;5019725;28;20554;-75
2022/04/02 03:37:46;;;;;;;10.90;7.93;;;-0.10;99.90;;;-1.89;99.83;96866.81;5002260;28;20882;-79
2022/04/02 03:40:17;;;;;;;11.80;8.47;;;-0.10;99.90;;;-1.96;99.38;96855.22;5004429;28;20486;-75
2022/04/02 03:42:46;;;;;;;13.40;8.63;;;-0.10;99.90;;;-1.96;99.33;96863.16;5008133;28;20465;-80
2022/04/02 03:45:16;;;;;;;14.60;7.70;;;-0.20;99.90;;;-1.93;99.99;96871.59;5004045;28;21803;-77
2022/04/02 03:47:43;;;;;;;9.80;7.60;;;-0.20;99.90;;;-1.88;100.00;96868.47;5005407;28;20451;-75
2022/04/02 03:50:10;;;;;;;12.33;8.47;;;-0.20;99.90;;;-2.00;100.00;96868.78;5006103;28;20905;-78
2022/04/02 03:52:38;;;;;;;17.17;7.97;;;-0.20;99.90;;;-1.98;100.00;96873.09;5003256;28;20459;-78
2022/04/02 03:55:06;;;;;;;11.10;7.70;;;-0.20;99.90;;;-1.88;100.00;96860.53;5017713;28;21864;-76
2022/04/02 03:57:35;;;;;;;15.03;8.40;;;-0.10;99.90;;;-1.80;100.00;96865.81;5003084;28;20467;-76
2022/04/02 04:00:04;;;;;;;12.20;7.77;;;-0.10;99.90;;;-1.78;100.00;96863.81;5004505;28;20479;-76
2022/04/02 04:02:31;;;;;;;12.83;8.90;;;-0.10;99.90;;;-1.95;99.80;96862.16;5002194;28;20822;-75
2022/04/02 04:04:59;;;;;;;12.40;9.17;;;-0.10;99.90;;;-1.97;100.00;96865.00;5003150;28;20469;-75
2022/04/02 04:07:26;;;;;;;12.60;8.63;;;-0.20;99.90;;;-2.06;100.00;96877.34;5009069;28;20461;-78
2022/04/02 04:09:53;;;;;;;14.30;8.30;;;-0.30;99.90;;;-1.97;100.00;96875.56;5004514;28;21029;-76
2022/04/02 04:12:20;;;;;;;12.47;8.90;;;-0.20;99.90;;;-2.01;100.00;96875.06;5002791;28;20462;-74
2022/04/02 04:14:48;;;;;;;13.87;8.43;;;-0.20;99.90;;;-1.95;100.00;96878.03;5005505;28;20469;-78
2022/04/02 04:17:15;;;;;;;12.57;9.90;;;-0.20;99.90;;;-1.90;100.00;96873.06;5008313;28;20471;-76
2022/04/02 04:19:42;;;;;;;12.53;8.57;;;-0.20;99.90;;;-1.83;100.00;96871.44;5003854;28;20883;-76
2022/04/02 04:22:10;;;;;;;12.50;9.57;;;-0.10;99.90;;;-1.89;100.00;96878.22;5008063;28;20549;-76
2022/04/02 04:24:37;;;;;;;11.33;8.60;;;-0.10;99.90;;;-2.35;100.00;96809.00;4998403;28;20588;-77
2022/04/02 04:27:04;;;;;;;17.90;10.00;;;-0.10;99.90;;;-1.94;100.00;96874.41;5005763;28;20548;-79
2022/04/02 04:29:31;;;;;;;12.13;9.13;;;-0.20;99.90;;;-2.04;100.00;96875.41;5005281;28;20550;-77
2022/04/02 04:32:00;;;;;;;10.10;8.63;;;-0.20;99.90;;;-2.07;100.00;96888.13;5016272;28;20942;-77
2022/04/02 04:34:27;;;;;;;13.30;10.00;;;-0.30;99.90;;;-1.97;100.00;96882.69;5008133;28;20482;-77
2022/04/02 04:36:54;;;;;;;13.73;9.60;;;-0.20;99.90;;;-2.07;99.38;96896.88;5014446;28;20494;-76
2022/04/02 04:39:21;;;;;;;13.27;9.20;;;-0.20;99.90;;;-1.99;99.51;96896.06;5028734;28;20495;-75
2022/04/02 04:41:48;;;;;;;12.00;9.47;;;-0.20;99.90;;;-2.12;99.81;96893.91;5026366;28;20469;-75
2022/04/02 04:44:15;;;;;;;13.07;8.70;;;-0.30;99.90;;;-1.98;99.56;96902.19;5008713;28;20466;-75
2022/04/02 04:46:42;;;;;;;17.00;9.13;;;-0.20;99.90;;;-1.98;99.23;96903.00;5008778;28;20795;-76
2022/04/02 04:49:11;;;;;;;12.70;9.30;;;-0.20;99.90;;;-1.95;99.61;96904.53;5005370;28;20455;-79
2022/04/02 04:51:38;;;;;;;11.80;8.83;;;-0.20;99.90;;;-1.97;98.76;96903.84;5005556;28;20465;-77
2022/04/02 04:54:05;;;;;;;11.23;9.77;;;-0.20;99.90;;;-1.91;98.90;96911.13;5001151;28;20494;-81
2022/04/02 04:56:32;;;;;;;11.40;9.63;;;-0.20;99.90;;;-2.03;98.69;96913.28;5005416;28;20450;-81
2022/04/02 04:58:59;;;;;;;12.60;9.43;;;-0.30;99.90;;;-2.01;99.82;96921.88;5009275;28;20570;-77
2022/04/02 05:01:28;;;;;;;11.77;9.07;;;-0.30;99.90;;;-1.97;99.59;96917.94;5003040;28;20463;-81
2022/04/02 05:03:54;;;;;;;18.20;9.77;;;-0.20;99.90;;;-1.90;99.05;96923.38;5002295;28;20465;-76
2022/04/02 05:06:23;;;;;;;11.17;9.93;;;-0.20;99.90;;;-2.05;99.56;96924.00;5002575;28;22665;-80
2022/04/02 05:08:50;;;;;;;12.97;8.97;;;-0.20;99.90;;;-2.08;99.68;96921.69;4998516;28;20908;-79
2022/04/02 05:11:17;;;;;;;16.40;10.07;;;-0.30;99.90;;;-2.04;99.26;96938.94;5004728;28;21113;-77
2022/04/02 05:13:45;;;;;;;11.00;9.87;;;-0.20;99.90;;;-1.96;99.31;96929.34;5005346;28;20946;-74
2022/04/02 05:16:12;;;;;;;11.90;10.10;;;-0.20;99.90;;;-1.94;100.00;96933.50;5001937;28;20463;-71
2022/04/02 05:18:40;;;;;;;11.80;10.60;;;-0.20;99.90;;;-1.83;99.75;96940.28;5001730;28;20474;-70
2022/04/02 05:21:07;;;;;;;15.83;10.70;;;-0.10;99.90;;;-1.82;99.81;96930.50;5001473;28;20634;-77
2022/04/02 05:23:35;;;;;;;13.67;10.10;;;-0.10;99.90;;;-1.74;98.98;96934.03;5006702;28;20555;-79
2022/04/02 05:26:03;;;;;;;14.87;9.87;;;0.00;99.90;;;-1.61;98.88;96938.81;5007291;28;20537;-75
2022/04/02 05:28:31;;;;;;;13.73;10.50;;;0.10;99.90;;;-1.72;98.51;96945.28;5016671;28;20567;-78
2022/04/02 05:30:58;;;;;;;12.30;8.10;;;0.00;99.90;;;-1.73;98.58;96950.72;5006081;28;20490;-80
2022/04/02 05:33:25;;;;;;;13.27;8.40;;;0.00;99.90;;;-1.85;98.58;96934.34;5006177;28;20482;-81
2022/04/02 05:35:52;;;;;;;16.07;10.40;;;0.00;99.90;;;-2.30;98.34;96868.41;5007628;28;20518;-82
2022/04/02 05:38:19;;;;;;;14.57;11.83;;;-0.10;99.90;;;-1.79;98.60;96954.84;5003502;28;22192;-76
2022/04/02 05:40:47;;;;;;;16.03;10.57;;;-0.10;99.90;;;-1.83;98.07;96950.88;5020928;28;20486;-87
2022/04/02 05:43:14;;;;;;;11.33;9.47;;;-0.10;99.90;;;-1.83;97.67;96955.34;5005527;28;20454;-79
2022/04/02 05:45:42;;;;;;;10.63;9.53;;;-0.10;99.90;;;-1.88;98.24;96954.00;5012899;28;20478;-81
2022/04/02 05:48:09;;;;;;;11.10;8.80;;;-0.10;99.90;;;-1.91;97.64;96964.94;5012034;28;20463;-82
2022/04/02 05:50:36;;;;;;;11.00;9.33;;;-0.10;99.90;;;-1.95;98.40;96950.38;5019591;28;20454;-79
2022/04/02 05:53:03;;;;;;;12.13;8.83;;;-0.10;99.90;;;-1.93;98.28;96964.28;5020210;28;20482;-72
2022/04/02 05:55:31;;;;;;;11.70;9.43;;;-0.10;99.90;;;-1.84;98.46;96965.13;5023054;28;20463;-74
2022/04/02 05:57:59;;;;;;;13.43;9.30;;;-0.10;99.90;;;-1.90;97.54;96971.03;5013335;28;20518;-72
2022/04/02 06:00:27;;;;;;;11.33;8.60;;;-0.10;99.90;;;-1.78;97.38;96968.94;5028446;28;21080;-80
2022/04/02 06:02:54;;;;;;;13.20;8.03;;;-0.10;99.90;;;-2.33;96.90;96916.34;5031383;28;20574;-76
2022/04/02 06:05:21;;;;;;;13.87;9.37;;;-0.10;99.90;;;-1.82;97.72;96973.72;5038660;28;20507;-76
2022/04/02 06:07:48;;;;;;;14.63;9.53;;;-0.10;99.90;;;-1.81;96.64;96988.63;5026727;28;20487;-83
2022/04/02 06:10:15;;;;;;;13.23;8.10;;;-0.10;99.90;;;-1.88;96.64;96987.63;5023385;28;20486;-78
2022/04/02 06:12:42;;;;;;;9.13;8.23;;;-0.10;99.90;;;-2.05;96.29;96969.00;5019155;28;20481;-78
2022/04/02 06:15:11;;;;;;;11.00;8.30;;;-0.10;99.90;;;-2.30;96.85;96926.63;5020125;28;20489;-78
2022/04/02 06:17:39;;;;;;;10.43;8.63;;;-0.10;99.90;;;-2.03;96.84;96996.19;5027148;28;20491;-75
2022/04/02 06:20:08;;;;;;;17.83;9.50;;;-0.20;99.90;;;-1.81;96.75;96999.22;5009016;28;20478;-77
2022/04/02 06:22:35;;;;;;;12.23;10.23;;;-0.10;99.90;;;-1.88;96.47;96984.97;5008688;28;20457;-78
2022/04/02 06:25:03;;;;;;;12.57;9.30;;;0.00;99.90;;;-1.71;96.64;97010.50;5011217;28;20553;-70
2022/04/02 06:27:30;;;;;;;14.83;8.80;;;0.00;99.90;;;-1.81;96.40;97012.44;5009023;28;20524;-71
2022/04/02 06:29:58;;;;;;;11.23;8.77;;;0.00;99.90;;;-1.80;96.30;97008.00;5001239;28;20552;-73
2022/04/02 06:32:27;;;;;;;13.60;9.40;;;0.00;99.90;;;-1.75;96.10;97013.63;5001877;28;20439;-73
2022/04/02 06:34:54;;;;;;;10.07;8.43;;;0.00;99.70;;;-1.74;95.03;97016.13;4999921;28;21009;-73
2022/04/02 06:37:21;;;;;;;9.57;7.83;;;0.10;98.70;;;-1.75;94.66;97006.50;5003302;28;20497;-73
2022/04/02 06:39:48;;;;;;;8.90;7.77;;;0.10;97.90;;;-1.69;94.49;97018.28;5003343;28;20501;-72
2022/04/02 06:42:15;;;;;;;11.87;7.43;;;0.10;97.10;;;-1.74;94.35;97026.72;5003659;28;20466;-73
2022/04/02 06:44:42;;;;;;;12.80;7.83;;;0.00;96.10;;;-1.71;93.97;97022.91;5002559;28;20508;-72
2022/04/02 06:47:09;;;;;;;10.10;7.67;;;0.10;96.30;;;-1.73;93.60;97020.44;5003193;28;20541;-72
2022/04/02 06:49:37;;;;;;;9.67;7.00;;;0.00;95.50;;;-1.76;92.34;97035.81;5004948;28;20821;-74
2022/04/02 06:52:06;;;;;;;11.00;7.50;;;0.10;93.60;;;-1.93;92.65;97030.47;5002849;28;20467;-73
2022/04/02 06:54:33;;;;;;;10.33;6.40;;;-0.10;93.70;;;-2.01;91.67;97033.06;4999671;28;20541;-76
2022/04/02 06:57:00;;;;;;;11.77;6.90;;;-0.20;92.10;;;-1.96;92.60;97040.53;5006457;28;20450;-72
2022/04/02 06:59:27;;;;;;;9.00;6.97;;;-0.20;94.10;;;-2.37;93.02;96965.28;5003512;28;20478;-73
2022/04/02 07:01:54;;;;;;;8.87;6.73;;;-0.20;94.70;;;-2.04;92.54;97031.59;5017959;28;20447;-75
2022/04/02 07:04:23;;;;;;;12.23;7.43;;;-0.20;94.00;;;-1.95;91.81;97058.94;5006228;28;20463;-84
2022/04/02 07:06:51;;;;;;;10.60;6.43;;;-0.10;93.00;;;-2.07;90.72;97050.41;5006645;28;20467;-81
2022/04/02 07:09:19;;;;;;;8.17;6.40;;;-0.20;90.90;;;-1.95;92.33;97047.50;5000956;28;20955;-77
2022/04/02 07:11:46;;;;;;;12.70;6.87;;;-0.20;93.30;;;-1.96;90.26;97059.91;5009434;28;20451;-80
2022/04/02 07:14:13;;;;;;;7.57;5.93;;;-0.20;91.10;;;-2.04;90.72;97060.72;5008653;28;20869;-80
2022/04/02 07:16:40;;;;;;;9.13;6.30;;;-0.20;90.80;;;-1.94;90.50;97062.38;5024723;28;20457;-75
2022/04/02 07:19:09;;;;;;;7.90;6.30;;;-0.10;91.80;;;-1.95;91.50;97045.69;5002998;28;20520;-72
2022/04/02 07:21:37;;;;;;;17.17;8.37;;;-0.10;92.60;;;-1.74;91.07;97066.44;5003974;28;20466;-76
2022/04/02 07:24:07;;;;;;;8.70;6.77;;;0.00;92.30;;;-1.74;91.55;97071.75;5000542;28;20493;-78
2022/04/02 07:26:34;;;;;;;7.60;6.53;;;0.00;92.10;;;-1.69;91.23;97083.69;5005782;28;21033;-79
2022/04/02 07:29:01;;;;;;;8.03;7.10;;;0.00;92.40;;;-1.62;90.58;97079.38;5002229;28;20462;-73
2022/04/02 07:31:28;;;;;;;12.00;7.20;;;0.10;92.10;;;-1.60;91.04;97082.69;5006340;28;20506;-79
2022/04/02 07:33:55;;;;;;;10.33;6.80;;;0.10;92.20;;;-1.49;90.72;97090.34;5006819;28;20488;-72
2022/04/02 07:36:35;;;;;;;10.87;6.73;;;0.30;92.30;;;-1.49;89.86;97090.34;5005656;28;20833;-77
2022/04/02 07:39:11;;;;;;;11.13;6.60;;;0.30;91.80;;;-1.47;89.69;97108.75;5008066;28;20512;-78
2022/04/02 07:41:46;;;;;;;9.37;7.90;;;0.30;91.10;;;-1.51;89.45;97102.94;5009411;28;20958;-72
2022/04/02 07:44:32;;;;;;;14.67;6.40;;;0.30;90.20;;;-1.46;89.20;97097.97;5002287;28;20455;-78
2022/04/02 07:47:00;;;;;;;13.27;7.23;;;0.30;90.10;;;-1.77;87.89;97098.53;5003385;28;20473;-75
2022/04/02 07:49:30;;;;;;;10.03;7.23;;;0.20;87.00;;;-1.63;88.73;97112.16;4999355;28;20892;-73
2022/04/02 07:51:57;;;;;;;7.67;5.80;;;0.20;88.80;;;-1.76;86.16;97086.94;5007063;28;20451;-78
2022/04/02 07:54:28;;;;;;;10.03;6.27;;;0.20;83.50;;;-1.62;86.14;97122.59;5005786;28;20521;-76
2022/04/02 07:57:04;;;;;;;8.13;6.43;;;0.20;84.40;;;-1.79;85.74;97116.41;5005168;28;21033;-79
2022/04/02 07:59:34;;;;;;;7.40;6.67;;;0.10;83.70;;;-1.71;85.93;97123.56;5003236;28;20466;-75
2022/04/02 08:02:03;;;;;;;6.40;5.77;;;0.10;84.90;;;-1.56;85.42;97137.03;5002430;28;20458;-78
2022/04/02 08:04:31;;;;;;;6.90;6.23;;;0.20;83.50;;;-1.76;85.19;97108.13;5003171;28;20458;-78
2022/04/02 08:06:59;;;;;;;7.87;6.20;;;0.20;83.90;;;-1.49;84.80;97138.03;4999146;28;21033;-81
2022/04/02 08:09:29;;;;;;;6.73;6.03;;;0.30;83.20;;;-1.28;86.43;97142.09;5002723;28;20504;-78
2022/04/02 08:11:59;;;;;;;11.70;6.70;;;0.50;85.90;;;-1.46;86.12;97142.19;5002993;28;21255;-72
2022/04/02 08:14:27;;;;;;;9.17;7.27;;;0.40;83.40;;;-1.41;86.88;97136.44;5002891;28;20831;-79
2022/04/02 08:16:55;;;;;;;12.33;6.00;;;0.40;86.50;;;-1.32;87.05;97146.88;4999616;28;21334;-79
2022/04/02 08:19:23;;;;;;;7.30;6.10;;;0.50;85.60;;;-1.23;87.43;97147.72;5015358;28;20882;-73
2022/04/02 08:21:50;;;;;;;9.60;6.30;;;0.50;86.50;;;-1.23;85.92;97150.38;5006259;28;20459;-76
2022/04/02 08:24:17;;;;;;;8.37;6.23;;;0.60;83.70;;;-1.23;86.54;97141.59;5003244;28;20513;-73
2022/04/02 08:26:56;;;;;;;9.43;7.40;;;0.60;85.70;;;-1.24;86.44;97161.13;5014124;28;20477;-78
2022/04/02 08:29:39;;;;;;;8.23;6.53;;;0.60;85.60;;;-1.41;85.76;97165.56;5014763;28;20482;-76
2022/04/02 08:32:24;;;;;;;11.23;6.90;;;0.60;83.40;;;-1.24;87.08;97161.97;5007174;28;21029;-70
2022/04/02 08:35:04;;;;;;;11.20;6.60;;;0.50;87.10;;;-1.15;87.67;97160.19;5014964;28;20548;-74
2022/04/02 08:37:50;;;;;;;10.30;6.80;;;0.60;88.10;;;-1.34;86.98;97166.59;5004244;28;20466;-74
2022/04/02 08:40:45;;;;;;;7.83;6.73;;;0.60;87.20;;;-1.04;87.44;97165.19;4999677;28;20498;-78
2022/04/02 08:43:59;;;;;;;8.83;6.50;;;0.60;87.60;;;-1.16;85.04;97185.03;5002963;28;20469;-75
2022/04/02 08:46:37;;;;;;;7.97;6.50;;;0.70;82.70;;;-1.25;86.71;97186.84;5003474;28;20491;-72
2022/04/02 08:49:34;;;;;;;8.47;7.23;;;0.60;85.60;;;-1.19;85.90;97191.47;4998777;28;20999;-72
2022/04/02 08:52:21;;;;;;;7.90;7.10;;;0.60;86.30;;;-1.00;86.30;97200.16;5000935;28;20495;-77
2022/04/02 08:55:14;;;;;;;9.83;7.10;;;0.70;85.20;;;-1.12;84.15;97202.28;4999787;28;20875;-74
2022/04/02 08:58:08;;;;;;;7.87;6.90;;;0.70;82.90;;;-1.38;83.97;97192.56;4998434;28;20474;-77
2022/04/02 09:00:45;;;;;;;8.87;7.03;;;0.60;81.80;;;-1.24;85.74;97220.31;5002028;28;20571;-72
2022/04/02 09:04:07;;;;;;;10.50;8.33;;;0.60;84.10;;;-0.78;85.45;97221.75;5007888;28;20447;-70
2022/04/02 09:07:21;;;;;;;7.43;6.60;;;0.80;86.20;;;-0.80;84.45;97215.78;5013617;28;20472;-75
2022/04/02 09:10:40;;;;;;;9.97;6.63;;;1.00;82.70;;;-0.59;83.54;97218.78;5021282;28;20451;-75
2022/04/02 09:13:49;;;;;;;9.27;7.50;;;1.10;82.70;;;-0.86;82.49;97228.69;5019305;28;20509;-71
2022/04/02 09:16:26;;;;;;;7.97;7.07;;;1.00;79.40;;;-0.89;83.84;97223.72;5018134;28;20462;-78
2022/04/02 09:19:13;;;;;;;8.33;6.97;;;0.90;81.40;;;-1.00;85.00;97231.97;5021274;28;20446;-73
2022/04/02 09:22:04;;;;;;;9.57;7.97;;;0.90;84.50;;;-0.88;82.86;97243.94;5016140;28;20886;-78
2022/04/02 09:25:30;;;;;;;8.37;7.30;;;0.90;82.10;;;-0.97;83.41;97244.94;5011004;28;20459;-78
2022/04/02 09:28:36;;;;;;;11.60;7.40;;;0.90;81.10;;;-0.53;84.09;97245.66;5009648;28;20539;-75
2022/04/02 09:32:08;;;;;;;8.50;7.60;;;1.10;82.50;;;-0.60;82.31;97254.28;5009604;28;20509;-76
2022/04/02 09:35:19;;;;;;;7.33;6.30;;;1.30;80.80;;;-0.66;83.01;97254.94;5017667;28;20521;-78
2022/04/02 09:38:13;;;;;;;10.13;7.67;;;1.20;80.30;;;-0.62;82.33;97258.94;5005253;28;20993;-72
2022/04/02 09:40:48;;;;;;;9.00;7.03;;;1.20;80.10;;;-0.70;82.12;97260.75;5008810;28;20483;-76
2022/04/02 09:43:27;;;;;;;7.40;6.70;;;1.10;79.60;;;-0.80;81.01;97269.66;5015842;28;20956;-70
2022/04/02 09:46:23;;;;;;;7.73;6.53;;;1.10;78.20;;;-0.78;82.16;97270.31;5012842;28;20466;-78
2022/04/02 09:49:00;;;;;;;11.53;7.40;;;1.10;79.20;;;-0.87;81.31;97264.16;5004529;28;20467;-80
2022/04/02 09:51:34;;;;;;;12.80;7.60;;;0.90;78.10;;;-0.66;81.31;97270.88;5006966;28;20545;-75
2022/04/02 09:54:05;;;;;;;8.80;7.90;;;1.00;79.20;;;-0.50;80.72;97270.06;5008256;28;20455;-77
2022/04/02 09:56:40;;;;;;;9.33;8.23;;;1.20;78.70;;;-0.29;79.73;97268.78;5007260;28;20448;-80
2022/04/02 09:59:19;;;;;;;8.50;7.33;;;1.40;77.70;;;-0.18;78.72;97276.41;5003440;28;20464;-79
2022/04/02 10:01:56;;;;;;;10.50;7.93;;;1.60;77.30;;;-0.45;78.03;97269.56;5009419;28;20490;-81
2022/04/02 10:04:40;;;;;;;9.63;8.07;;;1.40;75.60;;;-0.40;79.85;97275.22;5006712;28;20485;-78
2022/04/02 10:07:17;;;;;;;10.53;8.43;;;1.50;76.80;;;-0.32;79.51;97272.59;5004518;28;20455;-78
2022/04/02 10:09:47;;;;;;;8.80;7.90;;;1.50;76.50;;;-0.09;77.20;97271.91;5007007;28;20541;-78
2022/04/02 10:12:16;;;;;;;8.70;7.60;;;1.60;75.00;;;-0.36;77.97;97247.38;5004298;28;20463;-78
2022/04/02 10:14:43;;;;;;;13.40;8.70;;;1.60;75.10;;;0.30;78.38;97274.91;4987140;28;20459;-81
2022/04/02 10:17:12;;;;;;;8.50;7.70;;;1.90;76.60;;;0.42;77.94;97281.53;4989481;28;20459;-79
2022/04/02 10:19:41;;;;;;;9.43;8.40;;;2.10;75.90;;;0.49;76.41;97285.16;5011282;28;20494;-74
2022/04/02 10:22:10;;;;;;;9.20;8.10;;;2.30;74.70;;;0.10;77.78;97285.88;5007585;28;20475;-82
2022/04/02 10:24:39;;;;;;;8.37;7.10;;;2.00;75.00;;;-0.18;78.09;97287.00;5007025;28;21349;-82
2022/04/02 10:27:10;;;;;;;8.80;7.97;;;1.70;74.80;;;0.01;78.30;97295.69;5009055;28;20495;-69
2022/04/02 10:30:09;;;;;;;9.90;8.57;;;1.70;75.90;;;0.08;78.81;97295.84;5006071;28;20498;-75
2022/04/02 10:33:26;;;;;;;9.30;8.33;;;1.80;76.50;;;-0.22;77.55;97306.94;5008559;28;20458;-81
2022/04/02 10:35:47;;;;;;;9.33;7.50;;;1.70;74.90;;;-0.40;78.87;97290.31;5009761;28;20447;-80
2022/04/02 10:38:37;;;;;;;8.93;7.97;;;1.40;75.40;;;0.01;79.75;97297.50;5011647;28;20558;-74